Afton Lake, New York
Current Conditions -  °F | °C
As of 6:46 PM on Thursday 18 Dec 2014 (Local Time) from KBGM Reporting Station
Haze Haze  
Wind Chill: 19°   Ceiling: 500
Heat Index: 28°   Visibility: 6mi
Dew Point: 27°   Wind: 9mph
Humidity: 96%   Direction: 310°NW
Pressure: 29.97"   Gusts: NA
Location:  42.2584°N, 75.57°W
Report Text: KBGM 182346Z 31008KT 6SM BR BKN005 OVC010 M02/M03 A2997 RMK AO2 T10221028 $
Loading
Personal Weather Stations






























Interactive Weather Map New forecast layout! Learn more

10-Day Weather Forecast

Advertisements
Track Severe Weather on mobile